sensor_id;sensor_type;location;lat;lon;timestamp;temperature;humidity
55771;DHT22;41687;-33.234;-60.334;2023-10-19T00:00:58;17.30;34.60
55771;DHT22;41687;-33.234;-60.334;2023-10-19T00:03:26;17.20;37.70
55771;DHT22;41687;-33.234;-60.334;2023-10-19T00:05:56;17.10;39.80
55771;DHT22;41687;-33.234;-60.334;2023-10-19T00:08:24;17.10;41.60
55771;DHT22;41687;-33.234;-60.334;2023-10-19T00:10:54;17.00;43.00
55771;DHT22;41687;-33.234;-60.334;2023-10-19T00:13:50;17.00;43.00
55771;DHT22;41687;-33.234;-60.334;2023-10-19T00:16:21;16.90;46.90
55771;DHT22;41687;-33.234;-60.334;2023-10-19T00:18:50;16.90;46.10
55771;DHT22;41687;-33.234;-60.334;2023-10-19T00:21:20;16.80;47.90
55771;DHT22;41687;-33.234;-60.334;2023-10-19T00:23:58;16.80;48.20
55771;DHT22;41687;-33.234;-60.334;2023-10-19T00:26:31;16.70;49.80
55771;DHT22;41687;-33.234;-60.334;2023-10-19T00:29:00;16.60;49.80
55771;DHT22;41687;-33.234;-60.334;2023-10-19T00:31:48;16.60;50.20
55771;DHT22;41687;-33.234;-60.334;2023-10-19T00:34:16;16.50;51.40
55771;DHT22;41687;-33.234;-60.334;2023-10-19T00:36:45;16.50;52.40
55771;DHT22;41687;-33.234;-60.334;2023-10-19T00:39:15;16.40;53.50
55771;DHT22;41687;-33.234;-60.334;2023-10-19T00:41:48;16.30;53.90
55771;DHT22;41687;-33.234;-60.334;2023-10-19T00:44:17;16.30;54.40
55771;DHT22;41687;-33.234;-60.334;2023-10-19T00:47:04;16.20;54.60
55771;DHT22;41687;-33.234;-60.334;2023-10-19T00:49:39;16.20;54.50
55771;DHT22;41687;-33.234;-60.334;2023-10-19T00:52:08;16.20;54.20
55771;DHT22;41687;-33.234;-60.334;2023-10-19T00:54:41;16.20;54.70
55771;DHT22;41687;-33.234;-60.334;2023-10-19T00:57:14;16.10;54.30
55771;DHT22;41687;-33.234;-60.334;2023-10-19T00:59:47;16.00;55.00
55771;DHT22;41687;-33.234;-60.334;2023-10-19T01:02:18;16.00;55.00
55771;DHT22;41687;-33.234;-60.334;2023-10-19T01:04:52;16.10;55.10
55771;DHT22;41687;-33.234;-60.334;2023-10-19T01:07:40;16.00;55.10
55771;DHT22;41687;-33.234;-60.334;2023-10-19T01:10:09;16.00;55.20
55771;DHT22;41687;-33.234;-60.334;2023-10-19T01:12:46;15.80;56.20
55771;DHT22;41687;-33.234;-60.334;2023-10-19T01:15:17;15.80;55.80
55771;DHT22;41687;-33.234;-60.334;2023-10-19T01:18:06;15.80;56.80
55771;DHT22;41687;-33.234;-60.334;2023-10-19T01:20:37;15.80;56.90
55771;DHT22;41687;-33.234;-60.334;2023-10-19T01:23:19;15.80;57.40
55771;DHT22;41687;-33.234;-60.334;2023-10-19T01:25:58;15.90;58.00
55771;DHT22;41687;-33.234;-60.334;2023-10-19T01:28:31;15.90;59.10
55771;DHT22;41687;-33.234;-60.334;2023-10-19T01:31:12;15.90;59.50
55771;DHT22;41687;-33.234;-60.334;2023-10-19T01:33:58;15.90;58.70
55771;DHT22;41687;-33.234;-60.334;2023-10-19T01:36:27;15.90;58.80
55771;DHT22;41687;-33.234;-60.334;2023-10-19T01:38:56;15.80;59.50
55771;DHT22;41687;-33.234;-60.334;2023-10-19T01:41:28;15.80;60.00
55771;DHT22;41687;-33.234;-60.334;2023-10-19T01:43:59;15.70;59.70
55771;DHT22;41687;-33.234;-60.334;2023-10-19T01:46:32;15.70;58.70
55771;DHT22;41687;-33.234;-60.334;2023-10-19T01:49:00;15.70;58.80
55771;DHT22;41687;-33.234;-60.334;2023-10-19T01:51:32;15.70;58.70
55771;DHT22;41687;-33.234;-60.334;2023-10-19T01:54:00;15.60;59.70
55771;DHT22;41687;-33.234;-60.334;2023-10-19T01:56:28;15.60;59.40
55771;DHT22;41687;-33.234;-60.334;2023-10-19T01:58:56;15.50;59.60
55771;DHT22;41687;-33.234;-60.334;2023-10-19T02:01:27;15.40;60.50
55771;DHT22;41687;-33.234;-60.334;2023-10-19T02:03:57;15.30;61.70
55771;DHT22;41687;-33.234;-60.334;2023-10-19T02:06:30;15.40;61.10
55771;DHT22;41687;-33.234;-60.334;2023-10-19T02:11:51;15.40;61.50
55771;DHT22;41687;-33.234;-60.334;2023-10-19T02:14:26;15.40;61.10
55771;DHT22;41687;-33.234;-60.334;2023-10-19T02:17:00;15.30;62.20
55771;DHT22;41687;-33.234;-60.334;2023-10-19T02:19:31;15.30;62.00
55771;DHT22;41687;-33.234;-60.334;2023-10-19T02:22:01;15.20;63.70
55771;DHT22;41687;-33.234;-60.334;2023-10-19T02:24:31;15.10;63.70
55771;DHT22;41687;-33.234;-60.334;2023-10-19T02:26:59;15.10;63.50
55771;DHT22;41687;-33.234;-60.334;2023-10-19T02:29:30;15.20;63.00
55771;DHT22;41687;-33.234;-60.334;2023-10-19T02:31:58;15.20;63.50
55771;DHT22;41687;-33.234;-60.334;2023-10-19T02:34:31;15.20;63.40
55771;DHT22;41687;-33.234;-60.334;2023-10-19T02:36:59;15.30;62.90
55771;DHT22;41687;-33.234;-60.334;2023-10-19T02:39:27;15.30;62.90
55771;DHT22;41687;-33.234;-60.334;2023-10-19T02:41:55;15.30;64.50
55771;DHT22;41687;-33.234;-60.334;2023-10-19T02:44:23;15.30;63.20
55771;DHT22;41687;-33.234;-60.334;2023-10-19T02:46:54;15.30;63.80
55771;DHT22;41687;-33.234;-60.334;2023-10-19T02:49:42;15.20;63.60
55771;DHT22;41687;-33.234;-60.334;2023-10-19T02:52:20;15.20;63.90
55771;DHT22;41687;-33.234;-60.334;2023-10-19T02:54:49;15.20;62.60
55771;DHT22;41687;-33.234;-60.334;2023-10-19T02:57:17;15.20;62.90
55771;DHT22;41687;-33.234;-60.334;2023-10-19T02:59:46;15.10;63.20
55771;DHT22;41687;-33.234;-60.334;2023-10-19T03:02:14;15.10;63.50
55771;DHT22;41687;-33.234;-60.334;2023-10-19T03:04:41;15.20;63.60
55771;DHT22;41687;-33.234;-60.334;2023-10-19T03:07:10;15.20;63.40
55771;DHT22;41687;-33.234;-60.334;2023-10-19T03:09:43;15.10;63.40
55771;DHT22;41687;-33.234;-60.334;2023-10-19T03:12:30;15.10;63.70
55771;DHT22;41687;-33.234;-60.334;2023-10-19T03:14:59;15.10;64.20
55771;DHT22;41687;-33.234;-60.334;2023-10-19T03:17:28;15.00;64.10
55771;DHT22;41687;-33.234;-60.334;2023-10-19T03:19:56;15.10;64.70
55771;DHT22;41687;-33.234;-60.334;2023-10-19T03:22:25;15.00;63.90
55771;DHT22;41687;-33.234;-60.334;2023-10-19T03:24:55;15.10;63.90
55771;DHT22;41687;-33.234;-60.334;2023-10-19T03:27:40;15.10;64.80
55771;DHT22;41687;-33.234;-60.334;2023-10-19T03:30:12;15.00;64.80
55771;DHT22;41687;-33.234;-60.334;2023-10-19T03:32:43;15.00;64.90
55771;DHT22;41687;-33.234;-60.334;2023-10-19T03:35:10;15.00;65.30
55771;DHT22;41687;-33.234;-60.334;2023-10-19T03:37:42;14.90;66.20
55771;DHT22;41687;-33.234;-60.334;2023-10-19T03:40:14;14.90;65.80
55771;DHT22;41687;-33.234;-60.334;2023-10-19T03:42:53;15.00;66.20
55771;DHT22;41687;-33.234;-60.334;2023-10-19T03:45:21;15.00;65.90
55771;DHT22;41687;-33.234;-60.334;2023-10-19T03:47:51;14.90;66.20
55771;DHT22;41687;-33.234;-60.334;2023-10-19T03:50:22;14.90;66.10
55771;DHT22;41687;-33.234;-60.334;2023-10-19T03:52:51;14.90;67.50
55771;DHT22;41687;-33.234;-60.334;2023-10-19T03:55:18;15.00;66.50
55771;DHT22;41687;-33.234;-60.334;2023-10-19T03:57:50;14.90;67.40
55771;DHT22;41687;-33.234;-60.334;2023-10-19T04:00:21;14.90;67.20
55771;DHT22;41687;-33.234;-60.334;2023-10-19T04:02:53;14.80;67.70
55771;DHT22;41687;-33.234;-60.334;2023-10-19T04:05:22;14.90;67.30
55771;DHT22;41687;-33.234;-60.334;2023-10-19T04:07:50;14.90;66.40
55771;DHT22;41687;-33.234;-60.334;2023-10-19T04:10:22;15.00;66.70
55771;DHT22;41687;-33.234;-60.334;2023-10-19T04:13:12;14.90;67.60
55771;DHT22;41687;-33.234;-60.334;2023-10-19T04:15:39;14.90;67.50
55771;DHT22;41687;-33.234;-60.334;2023-10-19T04:18:08;14.90;67.10
55771;DHT22;41687;-33.234;-60.334;2023-10-19T04:20:37;14.90;67.40
55771;DHT22;41687;-33.234;-60.334;2023-10-19T04:23:24;14.90;67.20
55771;DHT22;41687;-33.234;-60.334;2023-10-19T04:25:55;14.80;68.10
55771;DHT22;41687;-33.234;-60.334;2023-10-19T04:28:32;14.90;67.50
55771;DHT22;41687;-33.234;-60.334;2023-10-19T04:31:12;14.90;68.00
55771;DHT22;41687;-33.234;-60.334;2023-10-19T04:33:43;14.80;68.20
55771;DHT22;41687;-33.234;-60.334;2023-10-19T04:36:13;14.90;67.90
55771;DHT22;41687;-33.234;-60.334;2023-10-19T04:38:41;14.90;68.40
55771;DHT22;41687;-33.234;-60.334;2023-10-19T04:41:11;14.90;68.80
55771;DHT22;41687;-33.234;-60.334;2023-10-19T04:43:40;14.90;69.40
55771;DHT22;41687;-33.234;-60.334;2023-10-19T04:46:11;14.90;69.40
55771;DHT22;41687;-33.234;-60.334;2023-10-19T04:48:40;14.90;70.30
55771;DHT22;41687;-33.234;-60.334;2023-10-19T04:51:09;14.80;69.70
55771;DHT22;41687;-33.234;-60.334;2023-10-19T04:53:37;14.80;70.20
55771;DHT22;41687;-33.234;-60.334;2023-10-19T04:56:07;14.80;70.10
55771;DHT22;41687;-33.234;-60.334;2023-10-19T04:58:39;14.80;70.90
55771;DHT22;41687;-33.234;-60.334;2023-10-19T05:01:07;14.90;70.40
55771;DHT22;41687;-33.234;-60.334;2023-10-19T05:03:38;14.90;70.90
55771;DHT22;41687;-33.234;-60.334;2023-10-19T05:06:05;14.90;70.00
55771;DHT22;41687;-33.234;-60.334;2023-10-19T05:08:33;14.90;69.30
55771;DHT22;41687;-33.234;-60.334;2023-10-19T05:11:01;14.90;69.10
55771;DHT22;41687;-33.234;-60.334;2023-10-19T05:13:31;15.00;68.80
55771;DHT22;41687;-33.234;-60.334;2023-10-19T05:15:59;15.00;68.30
55771;DHT22;41687;-33.234;-60.334;2023-10-19T05:18:27;14.90;70.10
55771;DHT22;41687;-33.234;-60.334;2023-10-19T05:20:55;15.00;69.10
55771;DHT22;41687;-33.234;-60.334;2023-10-19T05:23:24;14.90;70.30
55771;DHT22;41687;-33.234;-60.334;2023-10-19T05:25:59;14.90;70.60
55771;DHT22;41687;-33.234;-60.334;2023-10-19T05:28:27;15.00;70.30
55771;DHT22;41687;-33.234;-60.334;2023-10-19T05:30:54;15.00;71.60
55771;DHT22;41687;-33.234;-60.334;2023-10-19T05:33:22;15.00;70.30
55771;DHT22;41687;-33.234;-60.334;2023-10-19T05:35:51;15.00;70.10
55771;DHT22;41687;-33.234;-60.334;2023-10-19T05:38:19;15.00;70.10
55771;DHT22;41687;-33.234;-60.334;2023-10-19T05:40:48;15.00;68.70
55771;DHT22;41687;-33.234;-60.334;2023-10-19T05:43:17;15.00;69.00
55771;DHT22;41687;-33.234;-60.334;2023-10-19T05:45:45;14.90;69.60
55771;DHT22;41687;-33.234;-60.334;2023-10-19T05:48:17;14.80;70.00
55771;DHT22;41687;-33.234;-60.334;2023-10-19T05:50:44;14.70;70.80
55771;DHT22;41687;-33.234;-60.334;2023-10-19T05:53:12;14.80;70.80
55771;DHT22;41687;-33.234;-60.334;2023-10-19T05:55:40;14.80;71.10
55771;DHT22;41687;-33.234;-60.334;2023-10-19T05:58:08;14.80;71.60
55771;DHT22;41687;-33.234;-60.334;2023-10-19T06:00:36;14.80;71.10
55771;DHT22;41687;-33.234;-60.334;2023-10-19T06:03:04;14.80;72.00
55771;DHT22;41687;-33.234;-60.334;2023-10-19T06:05:31;14.80;72.90
55771;DHT22;41687;-33.234;-60.334;2023-10-19T06:07:59;14.70;72.80
55771;DHT22;41687;-33.234;-60.334;2023-10-19T06:10:28;14.70;73.20
55771;DHT22;41687;-33.234;-60.334;2023-10-19T06:12:56;14.70;72.30
55771;DHT22;41687;-33.234;-60.334;2023-10-19T06:15:24;14.70;71.70
55771;DHT22;41687;-33.234;-60.334;2023-10-19T06:17:52;14.80;71.90
55771;DHT22;41687;-33.234;-60.334;2023-10-19T06:20:19;14.70;71.60
55771;DHT22;41687;-33.234;-60.334;2023-10-19T06:22:57;14.70;72.70
55771;DHT22;41687;-33.234;-60.334;2023-10-19T06:25:34;14.80;71.20
55771;DHT22;41687;-33.234;-60.334;2023-10-19T06:28:02;14.70;71.90
55771;DHT22;41687;-33.234;-60.334;2023-10-19T06:30:31;14.80;70.60
55771;DHT22;41687;-33.234;-60.334;2023-10-19T06:33:00;14.80;70.00
55771;DHT22;41687;-33.234;-60.334;2023-10-19T06:35:29;14.80;68.60
55771;DHT22;41687;-33.234;-60.334;2023-10-19T06:37:59;14.80;68.70
55771;DHT22;41687;-33.234;-60.334;2023-10-19T06:40:27;14.80;68.40
55771;DHT22;41687;-33.234;-60.334;2023-10-19T06:42:56;14.80;68.30
55771;DHT22;41687;-33.234;-60.334;2023-10-19T06:45:25;14.70;68.90
55771;DHT22;41687;-33.234;-60.334;2023-10-19T06:47:53;14.70;68.90
55771;DHT22;41687;-33.234;-60.334;2023-10-19T06:50:22;14.60;68.90
55771;DHT22;41687;-33.234;-60.334;2023-10-19T06:52:51;14.60;69.40
55771;DHT22;41687;-33.234;-60.334;2023-10-19T06:55:19;14.60;69.40
55771;DHT22;41687;-33.234;-60.334;2023-10-19T06:57:49;14.60;69.50
55771;DHT22;41687;-33.234;-60.334;2023-10-19T07:00:18;14.60;70.50
55771;DHT22;41687;-33.234;-60.334;2023-10-19T07:02:56;14.50;72.90
55771;DHT22;41687;-33.234;-60.334;2023-10-19T07:05:27;14.50;72.00
55771;DHT22;41687;-33.234;-60.334;2023-10-19T07:07:58;14.60;71.70
55771;DHT22;41687;-33.234;-60.334;2023-10-19T07:10:26;14.50;72.70
55771;DHT22;41687;-33.234;-60.334;2023-10-19T07:12:57;14.50;72.20
55771;DHT22;41687;-33.234;-60.334;2023-10-19T07:15:25;14.60;72.40
55771;DHT22;41687;-33.234;-60.334;2023-10-19T07:17:54;14.70;71.20
55771;DHT22;41687;-33.234;-60.334;2023-10-19T07:20:22;14.70;70.10
55771;DHT22;41687;-33.234;-60.334;2023-10-19T07:22:53;14.70;69.40
55771;DHT22;41687;-33.234;-60.334;2023-10-19T07:25:22;14.60;69.50
55771;DHT22;41687;-33.234;-60.334;2023-10-19T07:27:53;14.70;69.00
55771;DHT22;41687;-33.234;-60.334;2023-10-19T07:30:21;14.60;68.70
55771;DHT22;41687;-33.234;-60.334;2023-10-19T07:32:50;14.70;68.00
55771;DHT22;41687;-33.234;-60.334;2023-10-19T07:35:29;14.70;67.40
55771;DHT22;41687;-33.234;-60.334;2023-10-19T07:38:01;14.70;67.60
55771;DHT22;41687;-33.234;-60.334;2023-10-19T07:40:30;14.70;67.50
55771;DHT22;41687;-33.234;-60.334;2023-10-19T07:42:58;14.70;67.90
55771;DHT22;41687;-33.234;-60.334;2023-10-19T07:45:26;14.50;69.30
55771;DHT22;41687;-33.234;-60.334;2023-10-19T07:47:54;14.40;70.50
55771;DHT22;41687;-33.234;-60.334;2023-10-19T07:50:22;14.30;71.00
55771;DHT22;41687;-33.234;-60.334;2023-10-19T07:52:51;14.20;71.30
55771;DHT22;41687;-33.234;-60.334;2023-10-19T07:55:21;14.30;71.40
55771;DHT22;41687;-33.234;-60.334;2023-10-19T07:57:53;14.30;71.00
55771;DHT22;41687;-33.234;-60.334;2023-10-19T08:00:21;14.30;70.80
55771;DHT22;41687;-33.234;-60.334;2023-10-19T08:02:51;14.30;70.40
55771;DHT22;41687;-33.234;-60.334;2023-10-19T08:05:21;14.10;71.50
55771;DHT22;41687;-33.234;-60.334;2023-10-19T08:07:48;14.00;72.10
55771;DHT22;41687;-33.234;-60.334;2023-10-19T08:10:18;14.00;72.30
55771;DHT22;41687;-33.234;-60.334;2023-10-19T08:12:47;13.90;73.30
55771;DHT22;41687;-33.234;-60.334;2023-10-19T08:15:17;13.80;74.90
55771;DHT22;41687;-33.234;-60.334;2023-10-19T08:17:48;13.80;75.70
55771;DHT22;41687;-33.234;-60.334;2023-10-19T08:20:17;13.90;76.10
55771;DHT22;41687;-33.234;-60.334;2023-10-19T08:22:58;13.90;76.10
55771;DHT22;41687;-33.234;-60.334;2023-10-19T08:25:28;13.80;76.30
55771;DHT22;41687;-33.234;-60.334;2023-10-19T08:27:56;13.70;77.20
55771;DHT22;41687;-33.234;-60.334;2023-10-19T08:30:24;13.80;77.40
55771;DHT22;41687;-33.234;-60.334;2023-10-19T08:32:52;13.90;77.40
55771;DHT22;41687;-33.234;-60.334;2023-10-19T08:35:21;13.70;77.00
55771;DHT22;41687;-33.234;-60.334;2023-10-19T08:37:53;13.90;76.70
55771;DHT22;41687;-33.234;-60.334;2023-10-19T08:40:21;13.90;76.30
55771;DHT22;41687;-33.234;-60.334;2023-10-19T08:42:51;14.00;75.00
55771;DHT22;41687;-33.234;-60.334;2023-10-19T08:45:17;14.00;75.30
55771;DHT22;41687;-33.234;-60.334;2023-10-19T08:47:56;13.90;76.50
55771;DHT22;41687;-33.234;-60.334;2023-10-19T08:50:32;13.80;76.50
55771;DHT22;41687;-33.234;-60.334;2023-10-19T08:53:04;13.80;76.10
55771;DHT22;41687;-33.234;-60.334;2023-10-19T08:55:32;13.80;76.80
55771;DHT22;41687;-33.234;-60.334;2023-10-19T08:58:04;13.60;77.60
55771;DHT22;41687;-33.234;-60.334;2023-10-19T09:00:51;13.60;77.40
55771;DHT22;41687;-33.234;-60.334;2023-10-19T09:03:23;13.50;78.90
55771;DHT22;41687;-33.234;-60.334;2023-10-19T09:05:51;13.60;78.10
55771;DHT22;41687;-33.234;-60.334;2023-10-19T09:08:19;13.70;77.50
55771;DHT22;41687;-33.234;-60.334;2023-10-19T09:10:50;13.80;76.40
55771;DHT22;41687;-33.234;-60.334;2023-10-19T09:13:23;13.80;76.00
55771;DHT22;41687;-33.234;-60.334;2023-10-19T09:15:50;13.80;76.60
55771;DHT22;41687;-33.234;-60.334;2023-10-19T09:18:26;13.90;75.50
55771;DHT22;41687;-33.234;-60.334;2023-10-19T09:20:55;13.90;75.60
55771;DHT22;41687;-33.234;-60.334;2023-10-19T09:23:29;14.00;74.80
55771;DHT22;41687;-33.234;-60.334;2023-10-19T09:25:58;14.00;75.00
55771;DHT22;41687;-33.234;-60.334;2023-10-19T09:28:31;14.00;75.30
55771;DHT22;41687;-33.234;-60.334;2023-10-19T09:31:01;14.10;74.60
55771;DHT22;41687;-33.234;-60.334;2023-10-19T09:33:31;14.00;74.80
55771;DHT22;41687;-33.234;-60.334;2023-10-19T09:36:02;14.00;74.50
55771;DHT22;41687;-33.234;-60.334;2023-10-19T09:38:32;14.10;74.20
55771;DHT22;41687;-33.234;-60.334;2023-10-19T09:41:00;14.10;74.70
55771;DHT22;41687;-33.234;-60.334;2023-10-19T09:43:37;14.10;74.10
55771;DHT22;41687;-33.234;-60.334;2023-10-19T09:46:08;14.00;74.60
55771;DHT22;41687;-33.234;-60.334;2023-10-19T09:48:45;14.00;75.00
55771;DHT22;41687;-33.234;-60.334;2023-10-19T09:51:13;14.00;75.10
55771;DHT22;41687;-33.234;-60.334;2023-10-19T09:56:50;13.90;75.90
55771;DHT22;41687;-33.234;-60.334;2023-10-19T09:59:38;13.90;76.10
55771;DHT22;41687;-33.234;-60.334;2023-10-19T10:02:16;14.00;75.50
55771;DHT22;41687;-33.234;-60.334;2023-10-19T10:04:49;14.00;76.30
55771;DHT22;41687;-33.234;-60.334;2023-10-19T10:07:17;14.00;76.50
55771;DHT22;41687;-33.234;-60.334;2023-10-19T10:09:46;14.00;75.90
55771;DHT22;41687;-33.234;-60.334;2023-10-19T10:12:24;14.10;75.50
55771;DHT22;41687;-33.234;-60.334;2023-10-19T10:15:02;14.10;76.10
55771;DHT22;41687;-33.234;-60.334;2023-10-19T10:17:36;14.10;75.90
55771;DHT22;41687;-33.234;-60.334;2023-10-19T10:23:29;13.90;78.20
55771;DHT22;41687;-33.234;-60.334;2023-10-19T10:26:01;14.00;79.50
55771;DHT22;41687;-33.234;-60.334;2023-10-19T10:28:31;14.00;78.30
55771;DHT22;41687;-33.234;-60.334;2023-10-19T10:33:47;14.10;76.30
55771;DHT22;41687;-33.234;-60.334;2023-10-19T10:36:16;14.00;76.50
55771;DHT22;41687;-33.234;-60.334;2023-10-19T10:38:51;14.10;76.30
55771;DHT22;41687;-33.234;-60.334;2023-10-19T10:41:23;14.10;75.40
55771;DHT22;41687;-33.234;-60.334;2023-10-19T10:43:57;14.10;76.20
55771;DHT22;41687;-33.234;-60.334;2023-10-19T10:46:27;13.90;77.10
55771;DHT22;41687;-33.234;-60.334;2023-10-19T10:48:59;13.90;76.60
55771;DHT22;41687;-33.234;-60.334;2023-10-19T10:51:29;14.00;76.30
55771;DHT22;41687;-33.234;-60.334;2023-10-19T10:53:58;14.20;75.20
55771;DHT22;41687;-33.234;-60.334;2023-10-19T10:56:26;14.30;74.70
55771;DHT22;41687;-33.234;-60.334;2023-10-19T10:58:54;14.30;75.10
55771;DHT22;41687;-33.234;-60.334;2023-10-19T11:01:31;14.30;75.30
55771;DHT22;41687;-33.234;-60.334;2023-10-19T11:04:10;14.40;74.10
55771;DHT22;41687;-33.234;-60.334;2023-10-19T11:06:54;14.60;73.70
55771;DHT22;41687;-33.234;-60.334;2023-10-19T11:09:23;14.50;74.30
55771;DHT22;41687;-33.234;-60.334;2023-10-19T11:11:51;14.30;75.00
55771;DHT22;41687;-33.234;-60.334;2023-10-19T11:14:22;14.50;75.10
55771;DHT22;41687;-33.234;-60.334;2023-10-19T11:16:51;14.70;73.90
55771;DHT22;41687;-33.234;-60.334;2023-10-19T11:19:20;14.70;73.60
55771;DHT22;41687;-33.234;-60.334;2023-10-19T11:21:55;14.70;73.20
55771;DHT22;41687;-33.234;-60.334;2023-10-19T11:24:26;14.70;73.70
55771;DHT22;41687;-33.234;-60.334;2023-10-19T11:26:56;14.70;72.80
55771;DHT22;41687;-33.234;-60.334;2023-10-19T11:29:24;14.60;73.30
55771;DHT22;41687;-33.234;-60.334;2023-10-19T11:31:59;14.70;72.70
55771;DHT22;41687;-33.234;-60.334;2023-10-19T11:34:28;14.80;71.70
55771;DHT22;41687;-33.234;-60.334;2023-10-19T11:36:59;15.30;71.70
55771;DHT22;41687;-33.234;-60.334;2023-10-19T11:39:27;15.50;70.90
55771;DHT22;41687;-33.234;-60.334;2023-10-19T11:41:55;15.90;69.50
55771;DHT22;41687;-33.234;-60.334;2023-10-19T11:44:23;16.90;67.00
55771;DHT22;41687;-33.234;-60.334;2023-10-19T11:46:50;17.60;64.20
55771;DHT22;41687;-33.234;-60.334;2023-10-19T11:49:18;18.40;62.40
55771;DHT22;41687;-33.234;-60.334;2023-10-19T11:51:47;18.70;59.20
55771;DHT22;41687;-33.234;-60.334;2023-10-19T11:54:14;18.90;60.00
55771;DHT22;41687;-33.234;-60.334;2023-10-19T11:56:43;19.50;57.80
55771;DHT22;41687;-33.234;-60.334;2023-10-19T11:59:11;18.90;58.00
55771;DHT22;41687;-33.234;-60.334;2023-10-19T12:01:38;18.50;58.50
55771;DHT22;41687;-33.234;-60.334;2023-10-19T12:04:06;18.10;59.40
55771;DHT22;41687;-33.234;-60.334;2023-10-19T12:06:33;17.80;60.50
55771;DHT22;41687;-33.234;-60.334;2023-10-19T12:09:01;17.60;61.50
55771;DHT22;41687;-33.234;-60.334;2023-10-19T12:11:44;17.40;62.20
55771;DHT22;41687;-33.234;-60.334;2023-10-19T12:14:12;17.40;62.70
55771;DHT22;41687;-33.234;-60.334;2023-10-19T12:16:41;17.30;62.30
55771;DHT22;41687;-33.234;-60.334;2023-10-19T12:19:09;17.50;62.80
55771;DHT22;41687;-33.234;-60.334;2023-10-19T12:21:37;17.30;62.30
55771;DHT22;41687;-33.234;-60.334;2023-10-19T12:24:12;17.30;62.80
55771;DHT22;41687;-33.234;-60.334;2023-10-19T12:26:39;17.30;62.70
55771;DHT22;41687;-33.234;-60.334;2023-10-19T12:29:07;17.50;62.80
55771;DHT22;41687;-33.234;-60.334;2023-10-19T12:31:38;18.10;61.70
55771;DHT22;41687;-33.234;-60.334;2023-10-19T12:34:06;18.80;61.00
55771;DHT22;41687;-33.234;-60.334;2023-10-19T12:36:38;19.60;58.40
55771;DHT22;41687;-33.234;-60.334;2023-10-19T12:39:07;19.90;57.10
55771;DHT22;41687;-33.234;-60.334;2023-10-19T12:41:36;19.80;56.60
55771;DHT22;41687;-33.234;-60.334;2023-10-19T12:44:04;19.60;57.10
55771;DHT22;41687;-33.234;-60.334;2023-10-19T12:46:39;19.20;57.50
55771;DHT22;41687;-33.234;-60.334;2023-10-19T12:49:07;19.00;57.60
55771;DHT22;41687;-33.234;-60.334;2023-10-19T12:51:43;19.50;58.30
55771;DHT22;41687;-33.234;-60.334;2023-10-19T12:54:11;20.10;57.60
55771;DHT22;41687;-33.234;-60.334;2023-10-19T12:56:40;20.50;56.20
55771;DHT22;41687;-33.234;-60.334;2023-10-19T12:59:08;21.00;54.90
55771;DHT22;41687;-33.234;-60.334;2023-10-19T13:01:36;21.20;54.00
55771;DHT22;41687;-33.234;-60.334;2023-10-19T13:04:04;21.70;53.40
55771;DHT22;41687;-33.234;-60.334;2023-10-19T13:06:45;21.90;52.70
55771;DHT22;41687;-33.234;-60.334;2023-10-19T13:09:16;22.00;52.40
55771;DHT22;41687;-33.234;-60.334;2023-10-19T13:11:49;21.80;51.60
55771;DHT22;41687;-33.234;-60.334;2023-10-19T13:14:19;21.70;51.90
55771;DHT22;41687;-33.234;-60.334;2023-10-19T13:16:47;22.10;52.00
55771;DHT22;41687;-33.234;-60.334;2023-10-19T13:19:22;22.40;51.40
55771;DHT22;41687;-33.234;-60.334;2023-10-19T13:21:53;22.70;51.00
55771;DHT22;41687;-33.234;-60.334;2023-10-19T13:24:21;22.50;50.00
55771;DHT22;41687;-33.234;-60.334;2023-10-19T13:26:49;22.10;50.70
55771;DHT22;41687;-33.234;-60.334;2023-10-19T13:29:17;21.70;50.90
55771;DHT22;41687;-33.234;-60.334;2023-10-19T13:31:47;21.50;52.10
55771;DHT22;41687;-33.234;-60.334;2023-10-19T13:34:20;21.20;52.20
55771;DHT22;41687;-33.234;-60.334;2023-10-19T13:36:47;21.10;53.20
55771;DHT22;41687;-33.234;-60.334;2023-10-19T13:39:16;21.00;53.00
55771;DHT22;41687;-33.234;-60.334;2023-10-19T13:41:44;21.00;54.00
55771;DHT22;41687;-33.234;-60.334;2023-10-19T13:44:12;21.50;54.20
55771;DHT22;41687;-33.234;-60.334;2023-10-19T13:46:39;21.90;53.00
55771;DHT22;41687;-33.234;-60.334;2023-10-19T13:49:07;22.10;51.80
55771;DHT22;41687;-33.234;-60.334;2023-10-19T13:51:36;22.60;51.30
55771;DHT22;41687;-33.234;-60.334;2023-10-19T13:54:05;22.60;51.00
55771;DHT22;41687;-33.234;-60.334;2023-10-19T13:56:33;22.90;51.20
55771;DHT22;41687;-33.234;-60.334;2023-10-19T13:59:00;23.10;49.80
55771;DHT22;41687;-33.234;-60.334;2023-10-19T14:01:28;23.40;50.00
55771;DHT22;41687;-33.234;-60.334;2023-10-19T14:03:56;23.50;49.70
55771;DHT22;41687;-33.234;-60.334;2023-10-19T14:06:23;23.70;50.30
55771;DHT22;41687;-33.234;-60.334;2023-10-19T14:08:52;23.80;49.40
55771;DHT22;41687;-33.234;-60.334;2023-10-19T14:11:21;24.10;48.60
55771;DHT22;41687;-33.234;-60.334;2023-10-19T14:13:50;24.00;49.30
55771;DHT22;41687;-33.234;-60.334;2023-10-19T14:16:19;24.00;48.20
55771;DHT22;41687;-33.234;-60.334;2023-10-19T14:18:46;24.20;48.20
55771;DHT22;41687;-33.234;-60.334;2023-10-19T14:21:15;24.20;47.80
55771;DHT22;41687;-33.234;-60.334;2023-10-19T14:23:44;24.30;48.20
55771;DHT22;41687;-33.234;-60.334;2023-10-19T14:26:12;24.60;47.40
55771;DHT22;41687;-33.234;-60.334;2023-10-19T14:28:40;24.30;47.10
55771;DHT22;41687;-33.234;-60.334;2023-10-19T14:31:08;24.20;46.00
55771;DHT22;41687;-33.234;-60.334;2023-10-19T14:33:36;24.40;48.50
55771;DHT22;41687;-33.234;-60.334;2023-10-19T14:36:04;24.60;47.80
55771;DHT22;41687;-33.234;-60.334;2023-10-19T14:38:32;24.30;46.60
55771;DHT22;41687;-33.234;-60.334;2023-10-19T14:41:00;24.20;47.60
55771;DHT22;41687;-33.234;-60.334;2023-10-19T14:43:28;24.10;47.40
55771;DHT22;41687;-33.234;-60.334;2023-10-19T14:45:59;24.20;49.00
55771;DHT22;41687;-33.234;-60.334;2023-10-19T14:48:28;24.10;46.60
55771;DHT22;41687;-33.234;-60.334;2023-10-19T14:50:59;23.90;48.50
55771;DHT22;41687;-33.234;-60.334;2023-10-19T14:53:27;24.10;47.80
55771;DHT22;41687;-33.234;-60.334;2023-10-19T14:55:57;24.20;48.60
55771;DHT22;41687;-33.234;-60.334;2023-10-19T14:58:25;24.20;48.00
55771;DHT22;41687;-33.234;-60.334;2023-10-19T15:00:53;24.20;47.50
55771;DHT22;41687;-33.234;-60.334;2023-10-19T15:03:24;24.10;47.90
55771;DHT22;41687;-33.234;-60.334;2023-10-19T15:05:52;24.10;47.70
55771;DHT22;41687;-33.234;-60.334;2023-10-19T15:08:21;24.00;48.80
55771;DHT22;41687;-33.234;-60.334;2023-10-19T15:10:53;24.10;48.20
55771;DHT22;41687;-33.234;-60.334;2023-10-19T15:13:21;24.00;47.10
55771;DHT22;41687;-33.234;-60.334;2023-10-19T15:15:49;24.00;47.60
55771;DHT22;41687;-33.234;-60.334;2023-10-19T15:18:17;23.90;48.20
55771;DHT22;41687;-33.234;-60.334;2023-10-19T15:20:46;23.70;47.20